sensor_id;sensor_type;location;lat;lon;timestamp;temperature;humidity
6930;DHT22;3504;52.616;13.238;2024-02-26T00:02:22;2.60;76.43
6930;DHT22;3504;52.616;13.238;2024-02-26T00:07:22;2.57;75.54
6930;DHT22;3504;52.616;13.238;2024-02-26T00:12:23;2.53;76.22
6930;DHT22;3504;52.616;13.238;2024-02-26T00:17:24;2.52;75.74
6930;DHT22;3504;52.616;13.238;2024-02-26T00:22:25;2.47;75.78
6930;DHT22;3504;52.616;13.238;2024-02-26T00:27:25;2.44;75.91
6930;DHT22;3504;52.616;13.238;2024-02-26T00:32:26;2.40;75.84
6930;DHT22;3504;52.616;13.238;2024-02-26T00:37:26;2.36;76.19
6930;DHT22;3504;52.616;13.238;2024-02-26T00:42:27;2.25;76.10
6930;DHT22;3504;52.616;13.238;2024-02-26T00:47:27;2.20;76.07
6930;DHT22;3504;52.616;13.238;2024-02-26T00:52:28;2.15;76.14
6930;DHT22;3504;52.616;13.238;2024-02-26T00:57:28;2.09;76.67
6930;DHT22;3504;52.616;13.238;2024-02-26T01:02:29;1.98;77.01
6930;DHT22;3504;52.616;13.238;2024-02-26T01:07:29;1.96;76.77
6930;DHT22;3504;52.616;13.238;2024-02-26T01:12:35;1.91;76.73
6930;DHT22;3504;52.616;13.238;2024-02-26T01:17:36;1.89;76.71
6930;DHT22;3504;52.616;13.238;2024-02-26T01:22:36;1.84;76.93
6930;DHT22;3504;52.616;13.238;2024-02-26T01:27:37;1.78;76.85
6930;DHT22;3504;52.616;13.238;2024-02-26T01:32:38;1.72;77.23
6930;DHT22;3504;52.616;13.238;2024-02-26T01:37:38;1.72;76.97
6930;DHT22;3504;52.616;13.238;2024-02-26T01:42:41;1.68;76.84
6930;DHT22;3504;52.616;13.238;2024-02-26T01:47:42;1.65;76.70
6930;DHT22;3504;52.616;13.238;2024-02-26T01:52:48;1.64;77.12
6930;DHT22;3504;52.616;13.238;2024-02-26T01:57:50;1.57;76.45
6930;DHT22;3504;52.616;13.238;2024-02-26T02:02:52;1.50;77.33
6930;DHT22;3504;52.616;13.238;2024-02-26T02:07:55;1.50;77.18
6930;DHT22;3504;52.616;13.238;2024-02-26T02:12:56;1.48;76.93
6930;DHT22;3504;52.616;13.238;2024-02-26T02:17:56;1.46;76.84
6930;DHT22;3504;52.616;13.238;2024-02-26T02:22:57;1.37;77.22
6930;DHT22;3504;52.616;13.238;2024-02-26T02:27:57;1.31;77.90
6930;DHT22;3504;52.616;13.238;2024-02-26T02:32:59;1.29;77.67
6930;DHT22;3504;52.616;13.238;2024-02-26T02:37:59;1.29;77.65
6930;DHT22;3504;52.616;13.238;2024-02-26T02:43:00;1.24;77.23
6930;DHT22;3504;52.616;13.238;2024-02-26T02:48:02;1.22;77.53
6930;DHT22;3504;52.616;13.238;2024-02-26T02:53:03;1.20;77.96
6930;DHT22;3504;52.616;13.238;2024-02-26T02:58:03;1.13;77.76
6930;DHT22;3504;52.616;13.238;2024-02-26T03:03:04;1.11;77.56
6930;DHT22;3504;52.616;13.238;2024-02-26T03:08:05;1.10;77.99
6930;DHT22;3504;52.616;13.238;2024-02-26T03:13:05;1.04;77.99
6930;DHT22;3504;52.616;13.238;2024-02-26T03:18:06;1.07;77.78
6930;DHT22;3504;52.616;13.238;2024-02-26T03:23:07;1.07;77.76
6930;DHT22;3504;52.616;13.238;2024-02-26T03:28:10;1.06;77.63
6930;DHT22;3504;52.616;13.238;2024-02-26T03:33:10;0.97;77.63
6930;DHT22;3504;52.616;13.238;2024-02-26T03:38:11;0.97;77.79
6930;DHT22;3504;52.616;13.238;2024-02-26T03:43:11;0.95;77.85
6930;DHT22;3504;52.616;13.238;2024-02-26T03:48:13;0.92;78.09
6930;DHT22;3504;52.616;13.238;2024-02-26T03:53:19;0.88;78.45
6930;DHT22;3504;52.616;13.238;2024-02-26T03:58:19;0.86;78.62
6930;DHT22;3504;52.616;13.238;2024-02-26T04:03:20;0.88;78.57
6930;DHT22;3504;52.616;13.238;2024-02-26T04:08:20;0.88;78.43
6930;DHT22;3504;52.616;13.238;2024-02-26T04:13:21;0.90;78.34
6930;DHT22;3504;52.616;13.238;2024-02-26T04:18:21;0.85;78.25
6930;DHT22;3504;52.616;13.238;2024-02-26T04:23:22;0.88;78.17
6930;DHT22;3504;52.616;13.238;2024-02-26T04:28:22;0.85;78.19
6930;DHT22;3504;52.616;13.238;2024-02-26T04:33:25;0.83;78.02
6930;DHT22;3504;52.616;13.238;2024-02-26T04:38:26;0.80;78.33
6930;DHT22;3504;52.616;13.238;2024-02-26T04:43:26;0.82;78.40
6930;DHT22;3504;52.616;13.238;2024-02-26T04:48:27;0.79;78.54
6930;DHT22;3504;52.616;13.238;2024-02-26T04:53:28;0.82;78.28
6930;DHT22;3504;52.616;13.238;2024-02-26T04:58:28;0.82;78.28
6930;DHT22;3504;52.616;13.238;2024-02-26T05:03:29;0.85;78.30
6930;DHT22;3504;52.616;13.238;2024-02-26T05:08:29;0.83;78.24
6930;DHT22;3504;52.616;13.238;2024-02-26T05:13:31;0.85;78.47
6930;DHT22;3504;52.616;13.238;2024-02-26T05:18:32;0.86;78.34
6930;DHT22;3504;52.616;13.238;2024-02-26T05:23:32;0.86;78.43
6930;DHT22;3504;52.616;13.238;2024-02-26T05:28:33;0.82;78.94
6930;DHT22;3504;52.616;13.238;2024-02-26T05:33:33;0.85;78.85
6930;DHT22;3504;52.616;13.238;2024-02-26T05:38:33;0.86;79.08
6930;DHT22;3504;52.616;13.238;2024-02-26T05:43:34;0.85;78.74
6930;DHT22;3504;52.616;13.238;2024-02-26T05:48:35;0.85;78.51
6930;DHT22;3504;52.616;13.238;2024-02-26T05:53:35;0.85;78.99
6930;DHT22;3504;52.616;13.238;2024-02-26T05:58:36;0.79;79.47
6930;DHT22;3504;52.616;13.238;2024-02-26T06:03:36;0.82;79.33
6930;DHT22;3504;52.616;13.238;2024-02-26T06:08:37;0.79;79.25
6930;DHT22;3504;52.616;13.238;2024-02-26T06:13:38;0.80;79.52
6930;DHT22;3504;52.616;13.238;2024-02-26T06:18:38;0.80;79.66
6930;DHT22;3504;52.616;13.238;2024-02-26T06:23:39;0.85;79.57
6930;DHT22;3504;52.616;13.238;2024-02-26T06:28:43;0.89;79.58
6930;DHT22;3504;52.616;13.238;2024-02-26T06:33:44;0.95;79.56
6930;DHT22;3504;52.616;13.238;2024-02-26T06:38:44;0.99;79.59
6930;DHT22;3504;52.616;13.238;2024-02-26T06:43:44;1.06;79.50
6930;DHT22;3504;52.616;13.238;2024-02-26T06:48:45;1.19;79.73
6930;DHT22;3504;52.616;13.238;2024-02-26T06:53:45;1.29;79.53
6930;DHT22;3504;52.616;13.238;2024-02-26T06:58:46;1.41;79.33
6930;DHT22;3504;52.616;13.238;2024-02-26T07:03:46;1.50;79.98
6930;DHT22;3504;52.616;13.238;2024-02-26T07:08:47;1.60;79.97
6930;DHT22;3504;52.616;13.238;2024-02-26T07:13:47;1.75;79.88
6930;DHT22;3504;52.616;13.238;2024-02-26T07:18:49;1.82;80.25
6930;DHT22;3504;52.616;13.238;2024-02-26T07:23:50;1.94;80.39
6930;DHT22;3504;52.616;13.238;2024-02-26T07:28:50;2.03;80.74
6930;DHT22;3504;52.616;13.238;2024-02-26T07:33:51;2.19;80.42
6930;DHT22;3504;52.616;13.238;2024-02-26T07:38:51;2.33;80.51
6930;DHT22;3504;52.616;13.238;2024-02-26T07:43:54;2.44;81.03
6930;DHT22;3504;52.616;13.238;2024-02-26T07:48:54;2.63;81.20
6930;DHT22;3504;52.616;13.238;2024-02-26T07:53:55;2.85;82.31
6930;DHT22;3504;52.616;13.238;2024-02-26T07:58:55;3.19;83.92
6930;DHT22;3504;52.616;13.238;2024-02-26T08:03:56;3.43;83.30
6930;DHT22;3504;52.616;13.238;2024-02-26T08:08:57;3.70;83.70
6930;DHT22;3504;52.616;13.238;2024-02-26T08:13:57;3.95;83.21
6930;DHT22;3504;52.616;13.238;2024-02-26T08:18:59;4.20;82.66
6930;DHT22;3504;52.616;13.238;2024-02-26T08:23:59;4.41;82.67
6930;DHT22;3504;52.616;13.238;2024-02-26T08:29:00;4.62;82.39
6930;DHT22;3504;52.616;13.238;2024-02-26T08:34:00;4.79;81.99
6930;DHT22;3504;52.616;13.238;2024-02-26T08:39:02;5.03;81.68
6930;DHT22;3504;52.616;13.238;2024-02-26T08:44:02;5.23;80.91
6930;DHT22;3504;52.616;13.238;2024-02-26T08:49:03;5.38;80.10
6930;DHT22;3504;52.616;13.238;2024-02-26T08:54:04;5.55;79.84
6930;DHT22;3504;52.616;13.238;2024-02-26T08:59:07;5.78;79.57
6930;DHT22;3504;52.616;13.238;2024-02-26T09:04:08;6.05;79.42
6930;DHT22;3504;52.616;13.238;2024-02-26T09:09:08;6.29;78.60
6930;DHT22;3504;52.616;13.238;2024-02-26T09:14:09;6.50;77.74
6930;DHT22;3504;52.616;13.238;2024-02-26T09:19:09;6.65;77.31
6930;DHT22;3504;52.616;13.238;2024-02-26T09:24:11;7.03;76.28
6930;DHT22;3504;52.616;13.238;2024-02-26T09:29:11;7.37;75.55
6930;DHT22;3504;52.616;13.238;2024-02-26T09:34:12;7.68;75.55
6930;DHT22;3504;52.616;13.238;2024-02-26T09:39:13;8.11;74.20
6930;DHT22;3504;52.616;13.238;2024-02-26T09:44:21;8.50;72.35
6930;DHT22;3504;52.616;13.238;2024-02-26T09:49:23;8.86;71.30
6930;DHT22;3504;52.616;13.238;2024-02-26T09:54:25;9.12;71.21
6930;DHT22;3504;52.616;13.238;2024-02-26T09:59:29;9.35;69.63
6930;DHT22;3504;52.616;13.238;2024-02-26T10:04:34;9.49;68.42
6930;DHT22;3504;52.616;13.238;2024-02-26T10:09:35;9.56;67.93
6930;DHT22;3504;52.616;13.238;2024-02-26T10:14:36;9.67;67.49
6930;DHT22;3504;52.616;13.238;2024-02-26T10:19:37;9.86;68.19
6930;DHT22;3504;52.616;13.238;2024-02-26T10:24:37;10.04;67.44
6930;DHT22;3504;52.616;13.238;2024-02-26T10:29:38;10.09;66.10
6930;DHT22;3504;52.616;13.238;2024-02-26T10:34:39;10.20;65.83
6930;DHT22;3504;52.616;13.238;2024-02-26T10:39:47;10.51;65.28
6930;DHT22;3504;52.616;13.238;2024-02-26T10:44:47;10.74;65.13
6930;DHT22;3504;52.616;13.238;2024-02-26T10:49:50;10.68;63.29
6930;DHT22;3504;52.616;13.238;2024-02-26T10:54:54;10.91;63.73
6930;DHT22;3504;52.616;13.238;2024-02-26T10:59:56;11.00;62.19
6930;DHT22;3504;52.616;13.238;2024-02-26T11:04:58;11.10;62.71
6930;DHT22;3504;52.616;13.238;2024-02-26T11:10:05;11.19;62.79
6930;DHT22;3504;52.616;13.238;2024-02-26T11:15:06;11.26;62.38
6930;DHT22;3504;52.616;13.238;2024-02-26T11:20:10;11.33;61.31
6930;DHT22;3504;52.616;13.238;2024-02-26T11:25:15;11.44;62.01
6930;DHT22;3504;52.616;13.238;2024-02-26T11:30:18;11.44;59.05
6930;DHT22;3504;52.616;13.238;2024-02-26T11:35:19;11.42;59.12
6930;DHT22;3504;52.616;13.238;2024-02-26T11:40:20;11.43;59.08
6930;DHT22;3504;52.616;13.238;2024-02-26T11:50:49;11.44;58.78
6930;DHT22;3504;52.616;13.238;2024-02-26T11:56:17;11.57;58.02
6930;DHT22;3504;52.616;13.238;2024-02-26T12:01:43;11.61;57.31
6930;DHT22;3504;52.616;13.238;2024-02-26T12:06:52;11.61;56.96
6930;DHT22;3504;52.616;13.238;2024-02-26T12:11:55;11.68;58.40
6930;DHT22;3504;52.616;13.238;2024-02-26T12:16:56;11.71;58.18
6930;DHT22;3504;52.616;13.238;2024-02-26T12:21:58;11.74;56.54
6930;DHT22;3504;52.616;13.238;2024-02-26T12:26:59;11.88;57.83
6930;DHT22;3504;52.616;13.238;2024-02-26T12:32:00;11.97;57.33
6930;DHT22;3504;52.616;13.238;2024-02-26T12:37:01;12.09;54.67
6930;DHT22;3504;52.616;13.238;2024-02-26T12:42:01;12.22;54.50
6930;DHT22;3504;52.616;13.238;2024-02-26T12:47:04;12.25;54.25
6930;DHT22;3504;52.616;13.238;2024-02-26T12:52:05;12.25;53.44
6930;DHT22;3504;52.616;13.238;2024-02-26T12:57:06;12.26;53.99
6930;DHT22;3504;52.616;13.238;2024-02-26T13:02:08;12.26;53.37
6930;DHT22;3504;52.616;13.238;2024-02-26T13:07:09;12.25;55.06
6930;DHT22;3504;52.616;13.238;2024-02-26T13:12:10;12.15;53.25
6930;DHT22;3504;52.616;13.238;2024-02-26T13:17:11;12.06;52.69
6930;DHT22;3504;52.616;13.238;2024-02-26T13:22:12;12.11;53.51
6930;DHT22;3504;52.616;13.238;2024-02-26T13:27:12;12.15;53.35
6930;DHT22;3504;52.616;13.238;2024-02-26T13:32:21;12.09;54.12
6930;DHT22;3504;52.616;13.238;2024-02-26T13:37:21;12.15;55.14
6930;DHT22;3504;52.616;13.238;2024-02-26T13:42:21;11.98;54.05
6930;DHT22;3504;52.616;13.238;2024-02-26T13:47:22;11.97;54.36
6930;DHT22;3504;52.616;13.238;2024-02-26T13:52:22;11.88;52.96
6930;DHT22;3504;52.616;13.238;2024-02-26T13:57:23;11.88;53.50
6930;DHT22;3504;52.616;13.238;2024-02-26T14:02:23;11.88;54.15
6930;DHT22;3504;52.616;13.238;2024-02-26T14:07:24;11.81;52.30
6930;DHT22;3504;52.616;13.238;2024-02-26T14:12:24;11.71;52.03
6930;DHT22;3504;52.616;13.238;2024-02-26T14:17:25;11.64;52.01
6930;DHT22;3504;52.616;13.238;2024-02-26T14:22:25;11.60;51.42
6930;DHT22;3504;52.616;13.238;2024-02-26T14:27:27;11.57;51.72
6930;DHT22;3504;52.616;13.238;2024-02-26T14:32:27;11.60;53.10
6930;DHT22;3504;52.616;13.238;2024-02-26T14:37:28;11.58;53.67
6930;DHT22;3504;52.616;13.238;2024-02-26T14:42:29;11.56;53.93
6930;DHT22;3504;52.616;13.238;2024-02-26T14:47:30;11.46;54.25
6930;DHT22;3504;52.616;13.238;2024-02-26T14:52:30;11.42;55.33
6930;DHT22;3504;52.616;13.238;2024-02-26T14:57:31;11.36;55.45
6930;DHT22;3504;52.616;13.238;2024-02-26T15:02:31;11.30;55.63
6930;DHT22;3504;52.616;13.238;2024-02-26T15:07:32;11.30;55.91
6930;DHT22;3504;52.616;13.238;2024-02-26T15:12:33;11.20;55.07
6930;DHT22;3504;52.616;13.238;2024-02-26T15:17:33;11.16;55.04
6930;DHT22;3504;52.616;13.238;2024-02-26T15:22:36;11.10;55.47
6930;DHT22;3504;52.616;13.238;2024-02-26T15:27:37;11.07;55.63
6930;DHT22;3504;52.616;13.238;2024-02-26T15:32:37;11.09;56.24
6930;DHT22;3504;52.616;13.238;2024-02-26T15:37:38;11.02;56.80
6930;DHT22;3504;52.616;13.238;2024-02-26T15:42:38;10.93;57.38
6930;DHT22;3504;52.616;13.238;2024-02-26T15:47:41;10.95;58.44
6930;DHT22;3504;52.616;13.238;2024-02-26T15:52:42;10.84;59.05
6930;DHT22;3504;52.616;13.238;2024-02-26T15:57:42;10.79;59.58
6930;DHT22;3504;52.616;13.238;2024-02-26T16:02:47;10.74;60.45
6930;DHT22;3504;52.616;13.238;2024-02-26T16:07:53;10.65;61.23
6930;DHT22;3504;52.616;13.238;2024-02-26T16:12:59;10.55;61.91
6930;DHT22;3504;52.616;13.238;2024-02-26T16:18:00;10.45;62.41
6930;DHT22;3504;52.616;13.238;2024-02-26T16:23:01;10.37;63.49
6930;DHT22;3504;52.616;13.238;2024-02-26T16:28:05;10.27;65.01
6930;DHT22;3504;52.616;13.238;2024-02-26T16:33:05;10.21;65.91
6930;DHT22;3504;52.616;13.238;2024-02-26T16:38:06;10.13;67.18
6930;DHT22;3504;52.616;13.238;2024-02-26T16:43:06;10.00;67.98
6930;DHT22;3504;52.616;13.238;2024-02-26T16:48:07;9.92;68.32
6930;DHT22;3504;52.616;13.238;2024-02-26T16:53:07;9.85;68.51
6930;DHT22;3504;52.616;13.238;2024-02-26T16:58:08;9.82;68.86
6930;DHT22;3504;52.616;13.238;2024-02-26T17:03:09;9.76;69.13
6930;DHT22;3504;52.616;13.238;2024-02-26T17:08:10;9.69;69.75
6930;DHT22;3504;52.616;13.238;2024-02-26T17:13:11;9.58;69.99
6930;DHT22;3504;52.616;13.238;2024-02-26T17:18:12;9.52;70.32
6930;DHT22;3504;52.616;13.238;2024-02-26T17:23:16;9.42;70.53
6930;DHT22;3504;52.616;13.238;2024-02-26T17:28:17;9.41;70.68
6930;DHT22;3504;52.616;13.238;2024-02-26T17:33:18;9.35;70.80
6930;DHT22;3504;52.616;13.238;2024-02-26T17:38:19;9.30;71.02
6930;DHT22;3504;52.616;13.238;2024-02-26T17:43:19;9.21;71.29
6930;DHT22;3504;52.616;13.238;2024-02-26T17:48:21;9.15;71.62
6930;DHT22;3504;52.616;13.238;2024-02-26T17:53:22;9.08;71.86
6930;DHT22;3504;52.616;13.238;2024-02-26T17:58:22;9.04;72.05
6930;DHT22;3504;52.616;13.238;2024-02-26T18:03:23;9.00;72.03
6930;DHT22;3504;52.616;13.238;2024-02-26T18:08:23;8.90;72.02
6930;DHT22;3504;52.616;13.238;2024-02-26T18:13:24;8.86;71.84
6930;DHT22;3504;52.616;13.238;2024-02-26T18:18:24;8.81;71.89
6930;DHT22;3504;52.616;13.238;2024-02-26T18:23:25;8.77;71.99
6930;DHT22;3504;52.616;13.238;2024-02-26T18:28:26;8.73;72.36
6930;DHT22;3504;52.616;13.238;2024-02-26T18:33:26;8.67;72.45
6930;DHT22;3504;52.616;13.238;2024-02-26T18:38:27;8.61;72.74
6930;DHT22;3504;52.616;13.238;2024-02-26T18:43:28;8.61;72.58
6930;DHT22;3504;52.616;13.238;2024-02-26T18:48:28;8.53;72.52
6930;DHT22;3504;52.616;13.238;2024-02-26T18:53:28;8.48;72.59
6930;DHT22;3504;52.616;13.238;2024-02-26T18:58:29;8.48;72.55
6930;DHT22;3504;52.616;13.238;2024-02-26T19:03:30;8.48;72.36
6930;DHT22;3504;52.616;13.238;2024-02-26T19:08:30;8.38;72.30
6930;DHT22;3504;52.616;13.238;2024-02-26T19:13:31;8.26;72.52
6930;DHT22;3504;52.616;13.238;2024-02-26T19:18:32;8.15;72.44
6930;DHT22;3504;52.616;13.238;2024-02-26T19:23:33;8.08;72.32
6930;DHT22;3504;52.616;13.238;2024-02-26T19:28:35;8.04;72.28
6930;DHT22;3504;52.616;13.238;2024-02-26T19:33:36;7.94;72.21
6930;DHT22;3504;52.616;13.238;2024-02-26T19:38:37;7.95;72.32
6930;DHT22;3504;52.616;13.238;2024-02-26T19:43:37;7.87;72.16
6930;DHT22;3504;52.616;13.238;2024-02-26T19:48:38;7.85;72.12
6930;DHT22;3504;52.616;13.238;2024-02-26T19:53:39;7.77;72.16
6930;DHT22;3504;52.616;13.238;2024-02-26T19:58:39;7.70;72.14
6930;DHT22;3504;52.616;13.238;2024-02-26T20:03:40;7.63;72.14
6930;DHT22;3504;52.616;13.238;2024-02-26T20:08:43;7.58;72.24
6930;DHT22;3504;52.616;13.238;2024-02-26T20:13:44;7.48;72.25
6930;DHT22;3504;52.616;13.238;2024-02-26T20:18:45;7.46;72.25
6930;DHT22;3504;52.616;13.238;2024-02-26T20:23:45;7.40;72.22
6930;DHT22;3504;52.616;13.238;2024-02-26T20:28:46;7.36;72.21
6930;DHT22;3504;52.616;13.238;2024-02-26T20:33:46;7.30;72.33
6930;DHT22;3504;52.616;13.238;2024-02-26T20:38:48;7.24;72.44
6930;DHT22;3504;52.616;13.238;2024-02-26T20:43:49;7.16;72.82
6930;DHT22;3504;52.616;13.238;2024-02-26T20:48:50;7.15;72.90
6930;DHT22;3504;52.616;13.238;2024-02-26T20:53:51;7.09;72.92
6930;DHT22;3504;52.616;13.238;2024-02-26T20:58:51;7.06;73.02
6930;DHT22;3504;52.616;13.238;2024-02-26T21:03:55;7.06;72.87
6930;DHT22;3504;52.616;13.238;2024-02-26T21:08:55;7.01;73.06
6930;DHT22;3504;52.616;13.238;2024-02-26T21:13:56;6.95;73.11
6930;DHT22;3504;52.616;13.238;2024-02-26T21:19:03;6.84;73.53
6930;DHT22;3504;52.616;13.238;2024-02-26T21:24:06;6.82;73.56
6930;DHT22;3504;52.616;13.238;2024-02-26T21:29:06;6.82;73.56
6930;DHT22;3504;52.616;13.238;2024-02-26T21:34:07;6.77;73.72
6930;DHT22;3504;52.616;13.238;2024-02-26T21:39:07;6.71;74.05
6930;DHT22;3504;52.616;13.238;2024-02-26T21:44:08;6.70;74.33
6930;DHT22;3504;52.616;13.238;2024-02-26T21:49:11;6.72;74.36
6930;DHT22;3504;52.616;13.238;2024-02-26T21:54:12;6.74;74.39
6930;DHT22;3504;52.616;13.238;2024-02-26T21:59:13;6.78;74.60
6930;DHT22;3504;52.616;13.238;2024-02-26T22:04:14;6.81;74.42
6930;DHT22;3504;52.616;13.238;2024-02-26T22:09:15;6.85;74.39
6930;DHT22;3504;52.616;13.238;2024-02-26T22:14:15;6.85;74.25
6930;DHT22;3504;52.616;13.238;2024-02-26T22:19:16;6.82;74.37
6930;DHT22;3504;52.616;13.238;2024-02-26T22:24:18;6.80;74.22
6930;DHT22;3504;52.616;13.238;2024-02-26T22:29:19;6.74;74.37
6930;DHT22;3504;52.616;13.238;2024-02-26T22:34:19;6.78;74.33
6930;DHT22;3504;52.616;13.238;2024-02-26T22:39:20;6.75;74.34
6930;DHT22;3504;52.616;13.238;2024-02-26T22:44:21;6.72;74.48
6930;DHT22;3504;52.616;13.238;2024-02-26T22:49:23;6.65;74.45
6930;DHT22;3504;52.616;13.238;2024-02-26T22:54:23;6.67;74.42
6930;DHT22;3504;52.616;13.238;2024-02-26T22:59:24;6.54;74.76
6930;DHT22;3504;52.616;13.238;2024-02-26T23:04:24;6.51;74.64
6930;DHT22;3504;52.616;13.238;2024-02-26T23:09:26;6.45;74.83
6930;DHT22;3504;52.616;13.238;2024-02-26T23:14:26;6.34;75.13
6930;DHT22;3504;52.616;13.238;2024-02-26T23:19:27;6.27;75.32
6930;DHT22;3504;52.616;13.238;2024-02-26T23:24:27;6.20;75.66
6930;DHT22;3504;52.616;13.238;2024-02-26T23:29:28;6.11;75.84
6930;DHT22;3504;52.616;13.238;2024-02-26T23:34:28;6.00;76.17
6930;DHT22;3504;52.616;13.238;2024-02-26T23:39:29;5.93;76.51
6930;DHT22;3504;52.616;13.238;2024-02-26T23:44:29;5.90;76.70
6930;DHT22;3504;52.616;13.238;2024-02-26T23:49:30;5.85;76.73
6930;DHT22;3504;52.616;13.238;2024-02-26T23:54:31;5.78;77.11
6930;DHT22;3504;52.616;13.238;2024-02-26T23:59:31;5.72;77.36
